Terminal Aerodrome Forecast
Issued by NWS Tulsa, OK

Home | Current Version | Previous Version | Text Only | Print | Product List | Glossary On
Versions: 1 2 3 4 5 6 7 8 9 10 11 12 13 14 15
000
FTUS44 KTSA 152300
TAFFSM
TAF
KFSM 152322Z 1600/1624 VRB03KT P6SM OVC100
     FM160900 05003KT P6SM OVC050
     FM161200 05003KT 2SM BR OVC015
     FM161500 06006KT 6SM BR OVC015
     FM161800 04006KT P6SM OVC050=

USA.gov is the U.S. government's official web portal to all federal, state and local government web resources and services.